createdAt,value
2023-04-11T00:03:39.491Z,4.80
2023-04-11T00:08:41.849Z,5.03
2023-04-11T00:13:45.181Z,4.93
2023-04-11T00:18:47.266Z,4.70
2023-04-11T00:23:48.830Z,4.63
2023-04-11T00:28:50.490Z,4.60
2023-04-11T00:33:52.097Z,4.85
2023-04-11T00:38:55.181Z,5.40
2023-04-11T00:43:57.798Z,4.72
2023-04-11T00:48:59.557Z,4.70
2023-04-11T00:54:01.745Z,4.95
2023-04-11T00:59:03.535Z,5.03
2023-04-11T01:04:05.609Z,4.68
2023-04-11T01:09:07.476Z,4.68
2023-04-11T01:14:09.187Z,4.75
2023-04-11T01:19:10.931Z,4.65
2023-04-11T01:24:12.830Z,4.53
2023-04-11T01:29:14.463Z,4.70
2023-04-11T01:34:17.897Z,5.05
2023-04-11T01:39:19.632Z,4.47
2023-04-11T01:44:23.190Z,4.57
2023-04-11T01:49:25.967Z,4.20
2023-04-11T01:54:27.588Z,4.32
2023-04-11T01:59:29.176Z,4.55
2023-04-11T02:04:30.728Z,4.30
2023-04-11T02:09:32.321Z,4.40
2023-04-11T02:14:44.874Z,4.10
2023-04-11T02:19:46.469Z,4.30
2023-04-11T02:24:48.063Z,4.35
2023-04-11T02:29:49.633Z,4.85
2023-04-11T02:34:51.587Z,4.88
2023-04-11T02:39:53.156Z,4.97
2023-04-11T02:44:55.788Z,4.38
2023-04-11T02:49:57.387Z,4.65
2023-04-11T02:54:59.236Z,4.30
2023-04-11T03:00:00.799Z,4.63
2023-04-11T03:05:05.297Z,4.40
2023-04-11T03:10:07.811Z,4.03
2023-04-11T03:15:09.678Z,4.65
2023-04-11T03:20:19.621Z,5.00
2023-04-11T03:25:21.484Z,4.38
2023-04-11T03:30:23.093Z,4.53
2023-04-11T03:35:24.687Z,4.90
2023-04-11T03:40:26.436Z,4.65
2023-04-11T03:45:28.225Z,4.85
2023-04-11T03:50:29.824Z,4.63
2023-04-11T03:55:31.830Z,4.13
2023-04-11T04:00:34.445Z,5.03
2023-04-11T04:05:36.050Z,4.07
2023-04-11T04:10:37.707Z,4.47
2023-04-11T04:15:39.383Z,4.20
2023-04-11T04:20:41.954Z,4.28
2023-04-11T04:25:47.793Z,4.30
2023-04-11T04:30:50.233Z,4.33
2023-04-11T04:35:51.951Z,4.45
2023-04-11T04:40:54.902Z,4.53
2023-04-11T04:45:56.575Z,5.07
2023-04-11T04:50:58.192Z,4.43
2023-04-11T04:55:59.741Z,5.25
2023-04-11T05:01:02.585Z,4.45
2023-04-11T05:06:04.461Z,4.57
2023-04-11T05:11:06.042Z,4.40
2023-04-11T05:16:08.437Z,4.10
2023-04-11T05:21:10.183Z,4.40
2023-04-11T05:26:11.903Z,4.28
2023-04-11T05:31:13.542Z,4.82
2023-04-11T05:36:15.278Z,4.38
2023-04-11T05:41:17.196Z,4.47
2023-04-11T05:46:18.849Z,4.40
2023-04-11T05:51:20.568Z,4.80
2023-04-11T05:56:22.140Z,4.97
2023-04-11T06:01:23.969Z,5.97
2023-04-11T06:06:25.930Z,4.35
2023-04-11T06:11:28.191Z,4.75
2023-04-11T06:16:32.750Z,5.57
2023-04-11T06:21:34.415Z,5.45
2023-04-11T06:26:36.122Z,4.93
2023-04-11T06:31:37.850Z,4.53
2023-04-11T06:36:42.762Z,5.18
2023-04-11T06:41:45.072Z,4.45
2023-04-11T06:46:46.749Z,5.40
2023-04-11T06:51:50.280Z,4.65
2023-04-11T06:56:52.387Z,5.13
2023-04-11T07:01:54.034Z,5.45
2023-04-11T07:06:55.873Z,5.72
2023-04-11T07:11:57.669Z,5.10
2023-04-11T07:16:59.386Z,5.55
2023-04-11T07:22:01.643Z,5.57
2023-04-11T07:27:03.334Z,5.50
2023-04-11T07:32:05.280Z,5.40
2023-04-11T07:37:07.172Z,5.82
2023-04-11T07:42:09.070Z,5.50
2023-04-11T07:47:10.772Z,5.90
2023-04-11T07:52:14.214Z,5.53
2023-04-11T07:57:16.634Z,5.85
2023-04-11T08:02:18.408Z,5.45
2023-04-11T08:07:20.275Z,5.45
2023-04-11T08:12:21.950Z,5.72
2023-04-11T08:17:28.671Z,5.55
2023-04-11T08:22:33.321Z,4.53
2023-04-11T08:27:35.007Z,4.68
2023-04-11T08:32:37.167Z,4.78
2023-04-11T08:37:38.854Z,4.78
2023-04-11T08:42:40.518Z,4.78
2023-04-11T08:47:44.734Z,4.60
2023-04-11T08:52:49.571Z,4.90
2023-04-11T08:57:51.342Z,4.80
2023-04-11T09:03:16.710Z,3.88
2023-04-11T09:08:19.162Z,4.15
2023-04-11T09:13:28.102Z,4.07
2023-04-11T09:18:37.896Z,4.35
2023-04-11T09:23:39.803Z,3.75
2023-04-11T09:28:44.238Z,3.78
2023-04-11T09:33:59.692Z,3.65
2023-04-11T09:39:17.109Z,3.77
2023-04-11T09:44:18.753Z,4.47
2023-04-11T09:49:20.506Z,3.70
2023-04-11T09:54:25.275Z,3.67
2023-04-11T09:59:27.527Z,4.07
2023-04-11T10:04:29.169Z,3.95
2023-04-11T10:09:32.652Z,3.85
2023-04-11T10:14:41.816Z,4.10
2023-04-11T10:19:44.392Z,3.30
2023-04-11T10:25:15.718Z,3.40
2023-04-11T10:30:17.468Z,3.13
2023-04-11T10:35:19.030Z,3.65
2023-04-11T10:40:20.875Z,3.90
2023-04-11T10:45:30.343Z,3.90
2023-04-11T10:50:32.085Z,3.80
2023-04-11T10:55:46.236Z,3.65
2023-04-11T11:00:50.907Z,5.05
2023-04-11T11:06:03.195Z,4.78
2023-04-11T11:11:07.039Z,4.80
2023-04-11T11:16:11.124Z,4.53
2023-04-11T11:21:20.656Z,4.30
2023-04-11T11:26:57.854Z,4.03
2023-04-11T11:32:01.128Z,4.63
2023-04-11T11:37:06.665Z,5.47
2023-04-11T11:42:08.553Z,5.38
2023-04-11T11:47:17.895Z,5.15
2023-04-11T11:52:40.478Z,4.95
2023-04-11T11:57:46.206Z,4.82
2023-04-11T12:02:48.063Z,4.15
2023-04-11T12:07:54.816Z,4.50
2023-04-11T12:12:56.496Z,4.43
2023-04-11T12:18:12.866Z,5.00
2023-04-11T12:23:14.498Z,4.78
2023-04-11T12:28:16.124Z,4.85
2023-04-11T12:33:17.896Z,4.97
2023-04-11T12:38:19.543Z,5.60
2023-04-11T12:43:21.352Z,5.05
2023-04-11T12:48:22.939Z,4.88
2023-04-11T12:53:25.175Z,5.28
2023-04-11T12:58:28.860Z,5.57
2023-04-11T13:03:30.691Z,5.18
2023-04-11T13:08:32.466Z,6.90
2023-04-11T13:13:34.095Z,5.63
2023-04-11T13:18:35.703Z,5.75
2023-04-11T13:23:37.464Z,5.68
2023-04-11T13:28:39.123Z,5.13
2023-04-11T13:33:40.926Z,5.18
2023-04-11T13:38:42.591Z,6.00
2023-04-11T13:43:44.205Z,5.70
2023-04-11T13:48:46.126Z,5.43
2023-04-11T13:53:47.814Z,5.90
2023-04-11T13:58:49.629Z,5.43
2023-04-11T14:03:51.366Z,6.32
2023-04-11T14:08:53.382Z,6.15
2023-04-11T14:13:55.196Z,5.97
2023-04-11T14:18:57.430Z,5.75
2023-04-11T14:23:59.395Z,4.90
2023-04-11T14:29:01.287Z,5.32
2023-04-11T14:34:02.922Z,5.07
2023-04-11T14:39:05.164Z,5.13
2023-04-11T14:44:07.195Z,4.65
2023-04-11T14:49:08.880Z,5.13
2023-04-11T14:54:10.478Z,5.00
2023-04-11T14:59:12.204Z,5.20
2023-04-11T15:04:14.585Z,5.82
2023-04-11T15:09:20.210Z,4.05
2023-04-11T15:14:29.208Z,4.80
2023-04-11T15:19:30.852Z,4.45
2023-04-11T15:24:32.461Z,4.93
2023-04-11T15:29:36.142Z,3.78
2023-04-11T15:34:37.765Z,4.07
2023-04-11T15:39:39.354Z,4.30
2023-04-11T15:44:40.979Z,3.85
2023-04-11T15:49:42.736Z,3.90
2023-04-11T15:54:44.619Z,4.57
2023-04-11T15:59:46.478Z,3.70
2023-04-11T16:04:50.584Z,4.15
2023-04-11T16:09:53.903Z,3.92
2023-04-11T16:14:55.662Z,3.03
2023-04-11T16:19:57.309Z,3.40
2023-04-11T16:24:58.986Z,3.33
2023-04-11T16:30:03.178Z,3.40
2023-04-11T16:35:05.126Z,3.17
2023-04-11T16:40:11.411Z,1.75
2023-04-11T16:50:15.054Z,2.08
2023-04-11T16:55:16.874Z,1.88
2023-04-11T17:00:20.508Z,1.88
2023-04-11T17:05:23.972Z,2.03
2023-04-11T17:10:26.161Z,0.70
2023-04-11T17:15:27.972Z,0.60
2023-04-11T17:20:29.962Z,0.52
2023-04-11T17:25:32.047Z,0.50
2023-04-11T17:30:33.766Z,0.60
2023-04-11T17:35:35.669Z,0.65
2023-04-11T17:40:39.004Z,0.80
2023-04-11T17:45:42.905Z,0.90
2023-04-11T17:50:46.350Z,0.90
2023-04-11T17:55:48.708Z,0.90
2023-04-11T18:00:56.685Z,0.88
2023-04-11T18:05:59.449Z,1.00
2023-04-11T18:11:01.143Z,1.08
2023-04-11T18:16:02.788Z,1.08
2023-04-11T18:21:06.683Z,2.03
2023-04-11T18:26:09.422Z,2.22
2023-04-11T18:31:11.762Z,1.40
2023-04-11T18:36:13.645Z,0.90
2023-04-11T18:41:15.724Z,0.90
2023-04-11T18:46:17.642Z,0.70
2023-04-11T18:51:20.624Z,0.88
2023-04-11T18:56:22.610Z,0.75
2023-04-11T19:01:24.976Z,1.10
2023-04-11T19:06:27.322Z,0.60
2023-04-11T19:11:29.729Z,0.80
2023-04-11T19:16:32.106Z,0.98
2023-04-11T19:21:34.182Z,0.70
2023-04-11T19:26:36.615Z,0.70
2023-04-11T19:31:39.152Z,1.02
2023-04-11T19:36:42.138Z,1.15
2023-04-11T19:41:49.900Z,1.15
2023-04-11T19:46:52.250Z,1.67
2023-04-11T19:51:54.428Z,2.22
2023-04-11T19:56:58.329Z,1.90
2023-04-11T20:02:02.137Z,1.98
2023-04-11T20:07:05.878Z,2.20
2023-04-11T20:12:08.553Z,1.92
2023-04-11T20:17:10.665Z,2.60
2023-04-11T20:22:17.411Z,1.90
2023-04-11T20:32:21.110Z,1.77
2023-04-11T20:37:22.722Z,2.10
2023-04-11T20:42:25.863Z,2.10
2023-04-11T20:47:27.546Z,2.20
2023-04-11T20:52:29.874Z,2.00
2023-04-11T20:57:31.544Z,2.20
2023-04-11T21:02:33.183Z,2.22
2023-04-11T21:07:36.893Z,1.73
2023-04-11T21:12:38.857Z,2.00
2023-04-11T21:17:40.735Z,1.80
2023-04-11T21:22:42.318Z,1.60
2023-04-11T21:27:43.924Z,1.45
2023-04-11T21:32:45.604Z,2.00
2023-04-11T21:37:49.086Z,1.75
2023-04-11T21:42:51.196Z,1.30
2023-04-11T21:47:53.038Z,1.27
2023-04-11T21:52:54.632Z,1.33
2023-04-11T21:57:56.242Z,1.50
2023-04-11T22:02:58.027Z,1.42
2023-04-11T22:08:19.755Z,1.17
2023-04-11T22:13:22.503Z,1.00
2023-04-11T22:18:27.152Z,1.15
2023-04-11T22:23:28.759Z,1.05
2023-04-11T22:28:30.314Z,1.13
2023-04-11T22:33:32.314Z,1.23
2023-04-11T22:38:35.236Z,1.58
2023-04-11T22:43:37.079Z,1.52
2023-04-11T22:48:38.785Z,2.25
2023-04-11T22:53:43.806Z,1.60
2023-04-11T22:58:46.029Z,1.45
2023-04-11T23:03:47.835Z,1.75
2023-04-11T23:08:49.461Z,1.50
2023-04-11T23:13:52.775Z,1.35
2023-04-11T23:18:55.485Z,1.33
2023-04-11T23:23:57.513Z,1.08
2023-04-11T23:29:01.219Z,1.20
2023-04-11T23:34:02.961Z,1.05
2023-04-11T23:39:05.412Z,0.95
2023-04-11T23:44:07.008Z,1.10
2023-04-11T23:49:08.708Z,1.10
2023-04-11T23:54:10.722Z,0.90
2023-04-11T23:59:12.302Z,0.90
